Time;durP1;ratioP1;P1;durP2;ratioP2;P2;SDS_P1;SDS_P2;PMS_P1;PMS_P2;Temp;Humidity;BMP_temperature;BMP_pressure;BME280_temperature;BME280_humidity;BME280_pressure;Samples;Min_cycle;Max_cycle;Signal;HPM_P1;HPM_P2
2022/06/07 00:00:45;;;;;;;0.90;0.90;;;19.20;82.60;;;;;;4952945;28;20667;-65
2022/06/07 00:03:12;;;;;;;0.90;0.90;;;19.20;83.40;;;;;;4953931;28;20619;-64
2022/06/07 00:05:43;;;;;;;0.90;0.90;;;19.20;83.80;;;;;;4953646;28;20674;-65
2022/06/07 00:08:12;;;;;;;1.33;1.23;;;19.20;84.80;;;;;;4954530;29;20652;-64
2022/06/07 00:10:39;;;;;;;1.53;1.00;;;19.10;85.50;;;;;;4952537;28;20766;-65
2022/06/07 00:13:06;;;;;;;2.97;1.50;;;19.10;86.00;;;;;;4952027;28;20616;-64
2022/06/07 00:15:33;;;;;;;0.87;0.87;;;19.10;86.40;;;;;;4949085;28;20681;-63
2022/06/07 00:18:00;;;;;;;0.83;0.83;;;19.20;86.80;;;;;;4954313;29;20734;-63
2022/06/07 00:20:27;;;;;;;1.63;1.00;;;19.00;87.90;;;;;;4934143;29;20661;-64
2022/06/07 00:22:55;;;;;;;0.90;0.90;;;19.10;88.80;;;;;;4951891;28;20687;-63
2022/06/07 00:25:22;;;;;;;0.97;0.97;;;19.00;89.90;;;;;;4953726;28;20755;-64
2022/06/07 00:27:49;;;;;;;1.20;1.10;;;18.90;90.40;;;;;;4952829;28;20642;-64
2022/06/07 00:30:17;;;;;;;1.17;1.10;;;18.90;91.00;;;;;;4954098;28;20656;-64
2022/06/07 00:32:44;;;;;;;1.10;1.10;;;18.90;91.50;;;;;;4951983;29;20626;-64
2022/06/07 00:35:12;;;;;;;1.33;0.97;;;18.80;92.20;;;;;;4952049;28;21346;-63
2022/06/07 00:37:39;;;;;;;1.20;1.10;;;18.80;92.70;;;;;;4952972;28;20622;-63
2022/06/07 00:40:07;;;;;;;1.03;1.03;;;18.80;93.20;;;;;;4953058;28;20739;-64
2022/06/07 00:42:34;;;;;;;0.90;0.90;;;18.70;93.70;;;;;;4953386;28;20971;-63
2022/06/07 00:45:01;;;;;;;0.90;0.90;;;18.70;94.20;;;;;;4951536;28;20874;-65
2022/06/07 00:47:30;;;;;;;1.37;1.00;;;18.70;94.60;;;;;;4954479;28;20655;-64
2022/06/07 00:50:06;;;;;;;1.00;1.00;;;18.70;95.30;;;;;;4952608;28;21266;-65
2022/06/07 00:52:34;;;;;;;0.83;0.83;;;18.70;96.10;;;;;;4952643;28;20723;-64
2022/06/07 00:55:03;;;;;;;1.00;1.00;;;18.70;96.40;;;;;;4952793;29;21003;-64
2022/06/07 00:57:31;;;;;;;1.20;1.10;;;18.60;97.00;;;;;;4952186;28;20648;-64
2022/06/07 00:59:58;;;;;;;0.87;0.87;;;18.60;97.70;;;;;;4952512;29;20664;-64
2022/06/07 01:02:26;;;;;;;0.90;0.90;;;18.60;98.10;;;;;;4952204;28;20712;-64
2022/06/07 01:04:52;;;;;;;0.80;0.80;;;18.70;98.70;;;;;;4953513;29;20615;-65
2022/06/07 01:12:50;;;;;;;1.03;1.03;;;18.50;99.90;;;;;;4951536;28;20739;-64
2022/06/07 01:15:17;;;;;;;1.17;1.17;;;18.50;99.90;;;;;;4951777;28;20639;-65
2022/06/07 01:17:44;;;;;;;0.93;0.93;;;18.40;99.90;;;;;;4949227;28;20646;-64
2022/06/07 01:20:11;;;;;;;6.37;1.20;;;18.40;99.90;;;;;;4951223;28;21015;-64
2022/06/07 01:22:38;;;;;;;0.97;0.97;;;18.50;99.90;;;;;;4944930;28;20641;-64
2022/06/07 01:25:06;;;;;;;1.67;0.90;;;18.40;99.90;;;;;;4953659;28;21038;-65
2022/06/07 01:27:32;;;;;;;3.33;1.10;;;18.40;99.90;;;;;;4952561;28;20715;-65
2022/06/07 01:29:59;;;;;;;3.10;1.30;;;18.40;99.90;;;;;;4951149;29;20626;-64
2022/06/07 01:32:26;;;;;;;1.10;1.00;;;18.40;99.90;;;;;;4952647;28;20647;-65
2022/06/07 01:34:53;;;;;;;1.43;1.20;;;18.40;99.90;;;;;;4952093;28;21192;-65
2022/06/07 01:37:20;;;;;;;1.43;1.23;;;18.30;99.90;;;;;;4951186;28;20689;-64
2022/06/07 01:42:32;;;;;;;1.33;1.23;;;18.20;99.90;;;;;;4952314;28;20658;-65
2022/06/07 01:44:59;;;;;;;1.20;1.20;;;18.10;99.90;;;;;;4952391;29;20668;-65
2022/06/07 01:47:29;;;;;;;1.67;1.20;;;18.20;99.90;;;;;;4950365;28;20936;-63
2022/06/07 01:49:56;;;;;;;1.20;1.10;;;18.20;99.90;;;;;;4951187;29;21002;-65
2022/06/07 01:52:26;;;;;;;1.80;0.90;;;18.20;99.90;;;;;;4952128;28;21070;-64
2022/06/07 01:54:53;;;;;;;1.40;1.17;;;18.20;99.90;;;;;;4941890;28;21395;-64
2022/06/07 01:57:21;;;;;;;1.17;1.07;;;18.10;99.90;;;;;;4952280;28;20646;-65
2022/06/07 01:59:49;;;;;;;1.20;1.20;;;18.20;99.90;;;;;;4950768;28;20664;-65
2022/06/07 02:02:16;;;;;;;1.20;1.20;;;18.30;99.90;;;;;;4951789;28;20636;-65
2022/06/07 02:04:44;;;;;;;0.93;0.93;;;18.30;99.90;;;;;;4951788;28;20620;-65
2022/06/07 02:07:12;;;;;;;1.20;1.20;;;18.20;99.90;;;;;;4950901;28;20652;-65
2022/06/07 02:09:42;;;;;;;1.07;1.07;;;18.30;99.90;;;;;;4951361;28;21237;-64
2022/06/07 02:12:09;;;;;;;1.13;1.13;;;18.10;99.90;;;;;;4951261;28;20679;-64
2022/06/07 02:14:36;;;;;;;1.17;1.13;;;18.10;99.90;;;;;;4952275;28;20620;-65
2022/06/07 02:17:03;;;;;;;1.30;1.23;;;18.00;99.90;;;;;;4950335;28;21128;-64
2022/06/07 02:19:30;;;;;;;1.33;1.33;;;18.00;99.90;;;;;;4951248;28;20659;-64
2022/06/07 02:21:57;;;;;;;1.20;1.20;;;17.90;99.90;;;;;;4951238;28;20735;-64
2022/06/07 02:24:24;;;;;;;1.10;1.10;;;17.90;99.90;;;;;;4951920;28;20612;-64
2022/06/07 02:27:06;;;;;;;0.87;0.87;;;18.00;99.90;;;;;;4950431;28;20674;-65
2022/06/07 02:29:45;;;;;;;1.13;1.13;;;18.10;99.90;;;;;;4951067;29;20842;-65
2022/06/07 02:32:18;;;;;;;1.33;1.33;;;18.10;99.90;;;;;;4946408;28;20655;-66
2022/06/07 02:34:47;;;;;;;1.20;1.20;;;18.10;99.90;;;;;;4935652;29;20620;-65
2022/06/07 02:37:14;;;;;;;4.30;1.30;;;18.00;99.90;;;;;;4949744;28;20663;-63
2022/06/07 02:39:42;;;;;;;0.97;0.83;;;17.90;99.90;;;;;;4949543;28;20670;-64
2022/06/07 02:42:12;;;;;;;1.37;1.27;;;17.90;99.90;;;;;;4951322;28;20612;-65
2022/06/07 02:44:40;;;;;;;0.90;0.90;;;17.90;99.90;;;;;;4951041;28;20739;-65
2022/06/07 02:47:07;;;;;;;0.90;0.90;;;17.90;99.90;;;;;;4951687;28;20739;-65
2022/06/07 02:49:34;;;;;;;0.90;0.90;;;17.90;99.90;;;;;;4951050;29;21124;-64
2022/06/07 02:52:01;;;;;;;1.30;1.20;;;17.90;99.90;;;;;;4949670;28;21231;-64
2022/06/07 02:54:36;;;;;;;2.37;1.37;;;18.00;99.90;;;;;;4933197;28;20632;-65
2022/06/07 02:57:03;;;;;;;1.30;1.30;;;17.90;99.90;;;;;;4951094;28;20651;-65
2022/06/07 02:59:30;;;;;;;1.10;1.10;;;18.00;99.90;;;;;;4951907;28;20660;-64
2022/06/07 03:01:57;;;;;;;1.07;1.07;;;17.90;99.90;;;;;;4953553;28;20636;-64
2022/06/07 03:04:24;;;;;;;1.30;1.20;;;17.80;99.90;;;;;;4954882;29;21173;-65
2022/06/07 03:06:51;;;;;;;1.20;1.20;;;17.90;99.90;;;;;;4952326;28;20660;-64
2022/06/07 03:09:18;;;;;;;1.50;1.40;;;17.90;99.90;;;;;;4954629;28;20620;-64
2022/06/07 03:11:45;;;;;;;0.83;0.83;;;17.90;99.90;;;;;;4953420;28;21340;-65
2022/06/07 03:14:12;;;;;;;1.20;1.10;;;17.80;99.90;;;;;;4954726;28;20619;-64
2022/06/07 03:16:38;;;;;;;1.40;1.30;;;17.80;99.90;;;;;;4945776;28;20794;-64
2022/06/07 03:19:06;;;;;;;1.40;1.30;;;17.80;99.90;;;;;;4953888;28;20690;-64
2022/06/07 03:21:33;;;;;;;1.13;1.13;;;17.70;99.90;;;;;;4953469;28;20616;-65
2022/06/07 03:24:00;;;;;;;1.00;1.00;;;17.80;99.90;;;;;;4953577;28;20663;-65
2022/06/07 03:26:26;;;;;;;1.13;1.13;;;17.90;99.90;;;;;;4953840;29;20643;-64
2022/06/07 03:28:53;;;;;;;3.90;1.30;;;17.80;99.90;;;;;;4954096;28;21242;-65
2022/06/07 03:31:20;;;;;;;1.63;1.53;;;17.80;99.90;;;;;;4954619;28;20620;-64
2022/06/07 03:33:47;;;;;;;1.20;1.10;;;17.60;99.90;;;;;;4952714;28;20640;-64
2022/06/07 03:36:20;;;;;;;1.13;1.13;;;17.50;99.90;;;;;;4953599;28;20636;-65
2022/06/07 03:38:48;;;;;;;1.40;1.40;;;17.60;99.90;;;;;;4953618;29;20659;-63
2022/06/07 03:41:26;;;;;;;1.07;1.07;;;17.60;99.90;;;;;;4953325;28;20711;-64
2022/06/07 03:43:53;;;;;;;1.60;1.50;;;17.60;99.90;;;;;;4950268;28;20639;-64
2022/06/07 03:46:23;;;;;;;1.67;1.37;;;17.70;99.90;;;;;;4953466;28;21047;-64
2022/06/07 03:48:50;;;;;;;1.40;1.40;;;17.80;99.90;;;;;;4953587;28;20635;-64
2022/06/07 03:51:20;;;;;;;2.50;1.37;;;17.70;99.90;;;;;;4954460;28;20650;-65
2022/06/07 03:53:48;;;;;;;1.60;1.47;;;17.60;99.90;;;;;;4949982;28;20648;-65
2022/06/07 03:56:16;;;;;;;1.23;1.23;;;17.50;99.90;;;;;;4950017;28;20688;-66
2022/06/07 03:58:44;;;;;;;1.43;1.40;;;17.50;99.90;;;;;;4953469;29;20695;-65
2022/06/07 04:01:15;;;;;;;1.03;1.03;;;17.30;99.90;;;;;;4952969;28;21009;-63
2022/06/07 04:03:43;;;;;;;1.63;1.30;;;17.30;99.90;;;;;;4953552;28;21130;-66
2022/06/07 04:06:32;;;;;;;1.03;1.03;;;17.40;99.90;;;;;;4952915;28;20750;-66
2022/06/07 04:08:59;;;;;;;1.37;1.27;;;17.30;99.90;;;;;;4952735;28;20646;-63
2022/06/07 04:11:27;;;;;;;1.60;1.50;;;17.20;99.90;;;;;;4952175;28;20727;-65
2022/06/07 04:13:56;;;;;;;1.33;1.33;;;17.30;99.90;;;;;;4953508;28;20679;-64
2022/06/07 04:16:25;;;;;;;2.17;1.60;;;17.20;99.90;;;;;;4953919;29;20642;-65
2022/06/07 04:18:53;;;;;;;1.33;1.33;;;17.20;99.90;;;;;;4951750;28;20916;-64
2022/06/07 04:21:22;;;;;;;1.53;1.50;;;17.20;99.90;;;;;;4937413;28;20628;-65
2022/06/07 04:23:49;;;;;;;1.70;1.60;;;17.20;99.90;;;;;;4945493;28;20638;-65
2022/06/07 04:26:23;;;;;;;1.43;1.43;;;17.20;99.90;;;;;;4971740;23;20720;-64
2022/06/07 04:28:50;;;;;;;1.37;1.27;;;17.30;99.90;;;;;;4977888;28;21019;-67
2022/06/07 04:31:19;;;;;;;1.37;1.37;;;17.40;99.90;;;;;;4973141;28;20613;-67
2022/06/07 04:33:47;;;;;;;1.60;1.40;;;17.40;99.90;;;;;;4983188;28;21201;-66
2022/06/07 04:36:20;;;;;;;1.40;1.40;;;17.50;99.90;;;;;;4992700;28;21038;-66
2022/06/07 04:38:48;;;;;;;2.93;1.47;;;17.70;99.90;;;;;;4977771;28;20666;-66
2022/06/07 04:41:17;;;;;;;1.70;1.60;;;18.00;99.90;;;;;;4972670;28;20984;-67
2022/06/07 04:43:51;;;;;;;1.30;1.30;;;18.60;99.90;;;;;;4984268;28;20654;-66
2022/06/07 04:46:18;;;;;;;1.17;1.17;;;19.00;99.90;;;;;;4989545;28;21230;-66
2022/06/07 04:48:46;;;;;;;1.33;1.33;;;19.00;99.90;;;;;;4990733;28;20991;-67
2022/06/07 04:51:17;;;;;;;1.40;1.30;;;19.10;99.90;;;;;;4991906;28;20622;-66
2022/06/07 04:53:46;;;;;;;1.47;1.07;;;19.20;99.90;;;;;;4991855;28;20692;-66
2022/06/07 04:56:25;;;;;;;1.13;1.10;;;19.20;99.90;;;;;;4982388;28;21191;-67
2022/06/07 04:58:53;;;;;;;1.30;1.30;;;19.00;99.90;;;;;;4973985;28;20623;-68
2022/06/07 05:01:21;;;;;;;1.37;1.37;;;18.90;99.90;;;;;;4989323;28;20640;-67
2022/06/07 05:03:49;;;;;;;1.50;1.50;;;18.70;99.90;;;;;;4991647;28;20677;-68
2022/06/07 05:06:22;;;;;;;1.30;1.30;;;18.80;99.90;;;;;;4983643;28;20730;-66
2022/06/07 05:08:51;;;;;;;1.33;1.30;;;18.90;99.90;;;;;;4971243;28;20730;-68
2022/06/07 05:11:18;;;;;;;1.50;1.40;;;18.90;99.90;;;;;;4971850;28;20615;-67
2022/06/07 05:13:45;;;;;;;1.37;1.27;;;19.00;99.90;;;;;;4981779;28;20638;-68
2022/06/07 05:16:13;;;;;;;1.40;1.30;;;19.00;99.90;;;;;;4990646;28;21179;-67
2022/06/07 05:18:40;;;;;;;1.53;1.43;;;19.70;99.90;;;;;;4986317;28;20666;-66
2022/06/07 05:21:08;;;;;;;1.40;1.40;;;20.30;99.90;;;;;;4991344;28;20657;-67
2022/06/07 05:23:35;;;;;;;1.13;1.13;;;20.80;99.90;;;;;;4988754;28;21229;-67
2022/06/07 05:26:14;;;;;;;1.47;1.37;;;21.30;99.90;;;;;;4990796;28;20640;-67
2022/06/07 05:28:42;;;;;;;1.37;1.20;;;21.70;99.90;;;;;;4980695;28;20734;-67
2022/06/07 05:31:10;;;;;;;1.23;1.23;;;22.10;99.90;;;;;;4971928;28;20628;-67
2022/06/07 05:33:37;;;;;;;1.23;1.23;;;22.30;99.90;;;;;;4976905;28;20670;-67
2022/06/07 05:36:04;;;;;;;0.90;0.90;;;22.80;98.90;;;;;;4991508;28;20622;-69
2022/06/07 05:38:31;;;;;;;1.60;1.50;;;23.20;97.60;;;;;;4990216;28;20656;-67
2022/06/07 05:40:58;;;;;;;1.20;1.20;;;23.10;96.70;;;;;;4990611;28;20657;-67
2022/06/07 05:43:25;;;;;;;1.20;1.20;;;23.00;96.70;;;;;;4988095;28;21794;-67
2022/06/07 05:45:53;;;;;;;1.40;1.40;;;22.50;96.60;;;;;;4988594;28;20742;-67
2022/06/07 05:48:21;;;;;;;1.40;1.23;;;22.20;97.30;;;;;;4989723;28;21215;-64
2022/06/07 05:50:50;;;;;;;1.30;1.30;;;22.30;97.20;;;;;;4971301;28;20631;-71
2022/06/07 05:53:19;;;;;;;1.60;1.50;;;22.60;96.70;;;;;;4973304;28;20726;-66
2022/06/07 05:55:46;;;;;;;1.60;1.50;;;22.70;96.10;;;;;;4982450;28;20769;-69
2022/06/07 05:58:13;;;;;;;1.20;1.20;;;22.60;96.40;;;;;;4990428;28;20697;-67
2022/06/07 06:00:40;;;;;;;1.20;1.10;;;22.60;96.20;;;;;;4991409;28;20661;-68
2022/06/07 06:03:08;;;;;;;1.50;1.20;;;22.60;96.10;;;;;;4987883;28;20610;-67
2022/06/07 06:05:35;;;;;;;1.07;1.07;;;22.20;96.40;;;;;;4971344;28;20650;-67
2022/06/07 06:11:02;;;;;;;1.33;1.10;;;21.80;97.00;;;;;;4990046;28;20614;-67
2022/06/07 06:13:29;;;;;;;1.10;1.10;;;21.90;97.20;;;;;;4971156;28;20618;-67
2022/06/07 06:16:04;;;;;;;3.13;1.10;;;21.80;97.40;;;;;;4970914;28;20722;-69
2022/06/07 06:18:32;;;;;;;1.00;1.00;;;21.70;97.80;;;;;;4989839;28;20700;-70
2022/06/07 06:20:59;;;;;;;1.13;1.13;;;22.10;97.40;;;;;;4990594;28;20654;-66
2022/06/07 06:23:26;;;;;;;3.03;1.47;;;22.30;96.80;;;;;;4973481;28;20682;-66
2022/06/07 06:25:52;;;;;;;1.47;1.30;;;23.00;96.30;;;;;;4968869;28;21253;-67
2022/06/07 06:28:20;;;;;;;1.00;1.00;;;23.80;95.00;;;;;;4970538;28;21228;-67
2022/06/07 06:30:48;;;;;;;2.10;1.10;;;24.50;93.00;;;;;;4976511;28;21207;-67
2022/06/07 06:33:16;;;;;;;1.43;1.17;;;25.20;92.00;;;;;;4989860;28;20729;-68
2022/06/07 06:35:51;;;;;;;3.97;1.27;;;26.10;90.40;;;;;;4987417;28;20639;-66
2022/06/07 06:38:19;;;;;;;0.93;0.93;;;27.50;85.60;;;;;;4976708;28;20753;-67
2022/06/07 06:40:47;;;;;;;2.67;1.40;;;29.10;80.00;;;;;;4972753;28;24454;-66
2022/06/07 06:43:15;;;;;;;1.30;1.20;;;30.30;73.90;;;;;;4982756;28;24839;-67
2022/06/07 06:45:43;;;;;;;2.10;1.20;;;31.10;68.90;;;;;;4982337;28;21257;-66
2022/06/07 06:48:12;;;;;;;1.10;1.10;;;31.90;64.50;;;;;;4992205;28;20668;-66
2022/06/07 06:50:40;;;;;;;2.47;1.20;;;32.40;62.80;;;;;;4992613;28;20642;-67
2022/06/07 06:53:07;;;;;;;0.97;0.97;;;33.00;59.70;;;;;;4993455;28;20848;-66
2022/06/07 06:55:34;;;;;;;1.77;1.67;;;33.40;57.70;;;;;;4986466;28;20755;-68
2022/06/07 06:58:01;;;;;;;2.80;1.10;;;34.30;56.10;;;;;;4974054;28;20720;-66
2022/06/07 07:00:27;;;;;;;3.10;1.20;;;34.70;54.00;;;;;;4978096;28;21322;-67
2022/06/07 07:02:54;;;;;;;2.20;1.07;;;34.10;53.20;;;;;;4984928;28;20638;-67
2022/06/07 07:05:21;;;;;;;1.97;1.50;;;32.70;54.20;;;;;;4993083;28;20622;-67
2022/06/07 07:07:48;;;;;;;1.23;1.23;;;32.50;55.10;;;;;;4993139;28;20640;-67
2022/06/07 07:10:15;;;;;;;1.30;1.20;;;32.20;55.20;;;;;;4983442;28;20985;-65
2022/06/07 07:12:42;;;;;;;0.90;0.90;;;32.20;55.00;;;;;;4975587;28;21169;-67
2022/06/07 07:15:13;;;;;;;1.30;1.30;;;31.30;55.10;;;;;;4979000;28;21196;-67
2022/06/07 07:17:40;;;;;;;1.10;1.10;;;31.30;55.90;;;;;;4983497;28;21049;-68
2022/06/07 07:20:08;;;;;;;1.20;1.10;;;32.20;55.60;;;;;;4993277;28;20665;-66
2022/06/07 07:22:36;;;;;;;1.50;1.20;;;34.40;52.70;;;;;;4991828;28;20626;-67
2022/06/07 07:25:05;;;;;;;1.20;1.20;;;35.70;50.80;;;;;;4974067;28;20603;-67
2022/06/07 07:27:32;;;;;;;1.20;1.10;;;37.20;49.20;;;;;;4973676;28;20651;-67
2022/06/07 07:29:59;;;;;;;1.53;1.03;;;37.40;47.80;;;;;;4975657;28;20746;-67
2022/06/07 07:32:26;;;;;;;0.80;0.80;;;37.80;46.40;;;;;;4986964;28;20716;-68
2022/06/07 07:34:53;;;;;;;1.30;1.20;;;37.40;46.20;;;;;;4989190;28;20630;-67
2022/06/07 07:37:20;;;;;;;1.23;1.23;;;37.60;46.20;;;;;;4981666;28;20804;-70
2022/06/07 07:39:48;;;;;;;6.50;1.33;;;37.70;45.70;;;;;;4984421;28;20670;-67
2022/06/07 07:42:15;;;;;;;1.40;1.40;;;37.90;45.20;;;;;;4983628;28;20634;-67
2022/06/07 07:44:42;;;;;;;1.20;1.20;;;39.00;44.10;;;;;;4984796;28;21180;-70
2022/06/07 07:47:09;;;;;;;1.00;0.93;;;39.70;43.30;;;;;;4984178;28;20716;-67
2022/06/07 07:49:36;;;;;;;1.80;1.00;;;39.00;42.90;;;;;;4993336;28;20608;-67
2022/06/07 07:52:03;;;;;;;1.27;1.17;;;38.00;43.70;;;;;;4991418;28;20642;-67
2022/06/07 07:54:30;;;;;;;1.07;0.97;;;36.60;44.70;;;;;;4992344;28;20634;-67
2022/06/07 07:56:56;;;;;;;1.23;1.23;;;34.60;46.20;;;;;;4990521;28;20745;-64
2022/06/07 07:59:24;;;;;;;2.40;1.13;;;32.90;49.00;;;;;;4991780;28;20653;-68
2022/06/07 08:01:52;;;;;;;1.30;1.23;;;33.40;48.80;;;;;;4984603;28;20663;-67
2022/06/07 08:04:19;;;;;;;1.70;1.17;;;33.40;49.00;;;;;;4990240;28;20640;-66
2022/06/07 08:06:46;;;;;;;1.60;1.00;;;34.20;47.90;;;;;;4992555;28;21350;-67
2022/06/07 08:09:14;;;;;;;1.30;1.20;;;34.50;46.40;;;;;;4976372;28;20726;-66
2022/06/07 08:11:42;;;;;;;1.00;1.00;;;34.50;46.70;;;;;;4984669;28;21025;-67
2022/06/07 08:14:14;;;;;;;1.00;1.00;;;36.60;45.10;;;;;;4976925;28;20754;-68
2022/06/07 08:16:41;;;;;;;1.03;1.03;;;37.20;44.30;;;;;;4973321;28;20749;-68
2022/06/07 08:19:08;;;;;;;0.80;0.80;;;38.80;43.30;;;;;;4979744;28;21088;-66
2022/06/07 08:21:37;;;;;;;1.17;1.17;;;37.90;42.90;;;;;;4982811;28;20706;-66
2022/06/07 08:24:04;;;;;;;5.60;1.00;;;37.40;44.00;;;;;;4983080;28;20638;-66
2022/06/07 08:26:33;;;;;;;1.20;1.20;;;36.20;43.60;;;;;;4992319;28;20634;-67
2022/06/07 08:29:02;;;;;;;1.13;1.07;;;35.80;44.40;;;;;;4984938;28;20652;-67
2022/06/07 08:31:30;;;;;;;0.90;0.90;;;36.10;43.50;;;;;;4993118;28;20614;-67
2022/06/07 08:39:31;;;;;;;1.40;0.97;;;31.70;48.00;;;;;;4990087;28;20649;-69
2022/06/07 08:42:12;;;;;;;3.60;1.40;;;31.50;48.10;;;;;;4992052;28;20666;-67
2022/06/07 08:44:44;;;;;;;1.03;0.90;;;30.40;49.50;;;;;;4984544;28;21040;-66
2022/06/07 08:47:23;;;;;;;1.83;1.30;;;28.40;52.20;;;;;;4987163;28;20638;-67
2022/06/07 08:49:55;;;;;;;2.00;1.13;;;29.10;52.20;;;;;;4990554;28;20737;-66
2022/06/07 08:52:33;;;;;;;1.57;1.10;;;31.40;50.20;;;;;;4990822;28;21269;-67
2022/06/07 08:55:02;;;;;;;1.93;1.10;;;34.90;46.20;;;;;;4972369;28;20639;-66
2022/06/07 08:57:36;;;;;;;1.27;1.17;;;37.10;43.70;;;;;;4972270;28;20643;-66
2022/06/07 09:00:30;;;;;;;1.07;0.97;;;38.90;42.20;;;;;;4984641;28;20632;-70
2022/06/07 09:03:07;;;;;;;0.97;0.97;;;40.60;41.60;;;;;;4986720;28;20635;-68
2022/06/07 09:05:34;;;;;;;1.20;1.10;;;41.20;39.70;;;;;;4985585;28;20662;-68
2022/06/07 09:08:01;;;;;;;1.10;1.10;;;42.60;38.80;;;;;;4987048;28;20841;-66
2022/06/07 09:13:21;;;;;;;2.33;2.13;;;43.60;38.10;;;;;;4981676;28;20646;-65
2022/06/07 09:15:52;;;;;;;1.40;1.30;;;44.40;37.40;;;;;;4982363;28;20617;-69
2022/06/07 09:18:23;;;;;;;2.03;1.27;;;43.60;36.80;;;;;;4988811;28;21044;-70
2022/06/07 09:20:56;;;;;;;1.37;1.27;;;39.80;39.00;;;;;;4991751;28;20655;-68
2022/06/07 09:23:32;;;;;;;1.20;1.20;;;40.70;39.10;;;;;;4984380;28;20653;-68
2022/06/07 09:26:36;;;;;;;1.03;1.03;;;42.10;38.30;;;;;;4991641;28;20761;-68
2022/06/07 09:29:07;;;;;;;2.10;1.03;;;41.20;38.40;;;;;;4990902;28;20701;-67
2022/06/07 09:31:39;;;;;;;1.03;0.93;;;40.20;39.70;;;;;;4982071;28;21126;-67
2022/06/07 09:34:15;;;;;;;1.00;1.00;;;40.30;39.40;;;;;;4972467;28;20611;-67
2022/06/07 09:36:43;;;;;;;1.23;1.00;;;38.60;40.20;;;;;;4978833;28;20661;-69
2022/06/07 09:39:37;;;;;;;3.47;1.20;;;38.30;40.80;;;;;;4989387;28;20638;-68
2022/06/07 09:42:22;;;;;;;1.00;1.00;;;38.80;40.60;;;;;;4979376;28;20659;-68
2022/06/07 09:45:28;;;;;;;1.37;1.37;;;38.10;41.40;;;;;;4980672;28;20621;-69
2022/06/07 09:47:55;;;;;;;0.77;0.77;;;36.30;41.10;;;;;;4973484;28;21257;-69
2022/06/07 09:50:32;;;;;;;1.63;1.53;;;33.30;43.90;;;;;;4991677;28;20629;-68
2022/06/07 09:53:08;;;;;;;1.30;1.20;;;31.90;45.90;;;;;;4984957;28;20728;-71
2022/06/07 09:55:53;;;;;;;1.40;1.30;;;33.00;44.90;;;;;;4990782;28;20982;-70
2022/06/07 09:58:59;;;;;;;0.90;0.90;;;33.20;44.60;;;;;;4977529;28;21042;-68
2022/06/07 10:01:44;;;;;;;1.13;1.13;;;33.10;44.70;;;;;;4973741;28;20669;-69
2022/06/07 10:04:44;;;;;;;0.97;0.97;;;31.50;46.50;;;;;;4987222;28;20669;-70
2022/06/07 10:07:30;;;;;;;1.30;1.30;;;30.40;48.00;;;;;;4984192;28;20762;-68
2022/06/07 10:10:10;;;;;;;1.00;1.00;;;29.70;49.20;;;;;;4980908;28;21154;-72
2022/06/07 10:13:08;;;;;;;1.13;1.13;;;29.50;49.40;;;;;;4983729;28;20734;-69
2022/06/07 10:15:40;;;;;;;0.80;0.80;;;30.10;48.90;;;;;;4982086;28;20612;-69
2022/06/07 10:18:10;;;;;;;1.27;1.13;;;29.70;49.00;;;;;;4980739;28;20650;-68
2022/06/07 10:21:11;;;;;;;1.90;1.20;;;27.90;50.80;;;;;;4987755;28;21080;-69
2022/06/07 10:24:05;;;;;;;1.10;1.10;;;28.30;50.80;;;;;;4974762;28;20634;-66
2022/06/07 10:26:51;;;;;;;1.00;1.00;;;28.50;49.10;;;;;;4976296;28;20663;-68
2022/06/07 10:29:43;;;;;;;1.00;0.90;;;28.60;49.50;;;;;;4969170;28;20737;-69
2022/06/07 10:32:40;;;;;;;0.93;0.83;;;28.50;49.30;;;;;;4981383;28;21109;-66
2022/06/07 10:35:17;;;;;;;1.37;0.90;;;28.80;49.60;;;;;;4986936;28;20718;-67
2022/06/07 10:38:20;;;;;;;1.00;1.00;;;29.50;49.40;;;;;;4988483;28;21024;-67
2022/06/07 10:41:20;;;;;;;1.57;1.00;;;29.80;48.60;;;;;;4984034;28;21038;-67
2022/06/07 10:43:56;;;;;;;3.60;3.30;;;29.50;48.40;;;;;;4978806;28;21040;-66
2022/06/07 10:46:25;;;;;;;3.30;3.10;;;29.40;48.60;;;;;;4971563;28;20615;-69
2022/06/07 10:49:13;;;;;;;2.37;2.20;;;29.40;48.50;;;;;;4986788;28;20626;-68
2022/06/07 10:54:58;;;;;;;1.03;1.03;;;29.20;48.90;;;;;;4979887;28;21014;-69
2022/06/07 10:57:32;;;;;;;1.00;1.00;;;29.40;48.00;;;;;;4991705;28;20757;-68
2022/06/07 11:00:11;;;;;;;1.17;1.07;;;29.70;47.10;;;;;;4990988;28;21213;-68
2022/06/07 11:03:00;;;;;;;0.90;0.90;;;29.80;47.80;;;;;;4991382;28;20674;-68
2022/06/07 11:11:14;;;;;;;0.90;0.90;;;30.20;48.10;;;;;;4991165;28;20611;-69
2022/06/07 11:14:09;;;;;;;1.00;1.00;;;30.40;47.30;;;;;;4986519;28;20674;-70
2022/06/07 11:17:03;;;;;;;2.60;1.20;;;29.90;47.30;;;;;;4971385;28;20675;-69
2022/06/07 11:19:31;;;;;;;0.90;0.90;;;29.10;48.10;;;;;;4978622;28;20618;-69
2022/06/07 11:22:04;;;;;;;0.97;0.97;;;29.00;48.30;;;;;;4988817;28;20745;-66
2022/06/07 11:24:34;;;;;;;32.53;20.93;;;29.00;47.90;;;;;;4975179;28;20722;-66
2022/06/07 11:27:07;;;;;;;14.87;11.03;;;29.10;48.30;;;;;;4974807;28;20743;-67
2022/06/07 11:29:34;;;;;;;1.40;1.30;;;29.20;48.50;;;;;;4973998;28;20625;-67
2022/06/07 11:32:02;;;;;;;1.20;1.20;;;28.80;49.40;;;;;;4983637;28;20622;-66
2022/06/07 11:34:31;;;;;;;0.90;0.90;;;28.70;50.00;;;;;;4994186;28;20641;-64
2022/06/07 11:37:21;;;;;;;3.60;0.90;;;28.00;50.30;;;;;;4994880;28;21008;-65
2022/06/07 11:39:53;;;;;;;0.60;0.60;;;27.80;51.20;;;;;;4993980;28;20636;-65
2022/06/07 11:42:28;;;;;;;4.67;0.90;;;27.20;51.60;;;;;;4994204;28;20769;-67
2022/06/07 11:45:04;;;;;;;2.00;1.10;;;26.90;52.50;;;;;;4994332;28;20621;-64
2022/06/07 11:47:46;;;;;;;2.83;1.13;;;26.90;52.50;;;;;;4982071;28;20642;-64
2022/06/07 11:50:27;;;;;;;1.70;1.00;;;27.30;52.00;;;;;;4979159;28;20619;-67
2022/06/07 11:52:59;;;;;;;0.90;0.90;;;27.30;51.20;;;;;;4994687;28;20625;-67
2022/06/07 11:55:38;;;;;;;0.90;0.90;;;27.00;51.20;;;;;;4994691;28;20621;-65
2022/06/07 11:58:07;;;;;;;0.90;0.90;;;26.40;52.00;;;;;;4994367;28;20677;-67
2022/06/07 12:00:34;;;;;;;1.10;1.07;;;26.40;52.40;;;;;;4993895;28;20630;-69
2022/06/07 12:03:01;;;;;;;0.87;0.87;;;26.40;52.70;;;;;;4985601;28;20655;-67
2022/06/07 12:05:37;;;;;;;0.87;0.87;;;26.00;53.40;;;;;;4989344;28;20622;-67
2022/06/07 12:08:21;;;;;;;0.90;0.90;;;26.30;53.50;;;;;;4994308;28;20649;-67
2022/06/07 12:11:01;;;;;;;1.80;1.00;;;26.20;52.20;;;;;;4994110;28;20622;-67
2022/06/07 12:13:49;;;;;;;1.67;1.20;;;26.00;51.90;;;;;;4994139;28;20709;-67
2022/06/07 12:16:40;;;;;;;1.07;0.90;;;26.40;52.00;;;;;;4993769;28;20629;-67
2022/06/07 12:19:26;;;;;;;1.07;1.07;;;26.70;52.10;;;;;;4993879;28;20676;-67
2022/06/07 12:22:02;;;;;;;1.10;1.10;;;26.90;52.40;;;;;;4993769;28;21081;-67
2022/06/07 12:24:37;;;;;;;1.10;1.10;;;27.20;52.20;;;;;;4975758;28;20691;-67
2022/06/07 12:27:37;;;;;;;1.00;1.00;;;27.50;52.30;;;;;;4973713;28;21207;-68
2022/06/07 12:30:24;;;;;;;1.30;1.20;;;27.90;52.00;;;;;;4989278;28;20637;-68
2022/06/07 12:32:50;;;;;;;2.33;1.00;;;28.10;51.30;;;;;;4991893;28;20620;-67
2022/06/07 12:35:27;;;;;;;1.00;1.00;;;28.20;50.80;;;;;;4974665;28;21204;-68
2022/06/07 12:38:00;;;;;;;0.90;0.90;;;28.10;50.90;;;;;;4988538;28;20661;-67
2022/06/07 12:40:30;;;;;;;1.20;1.10;;;28.20;51.10;;;;;;4992660;28;20696;-67
2022/06/07 12:42:57;;;;;;;1.00;1.00;;;28.20;50.60;;;;;;4992212;28;20669;-67
2022/06/07 12:45:32;;;;;;;0.97;0.97;;;28.00;50.60;;;;;;4991871;28;20692;-67
2022/06/07 12:48:13;;;;;;;1.00;1.00;;;27.90;50.80;;;;;;4992959;28;20652;-67
2022/06/07 12:50:43;;;;;;;1.27;1.00;;;27.70;51.30;;;;;;4987339;28;21014;-67
2022/06/07 12:53:24;;;;;;;0.87;0.87;;;27.60;51.30;;;;;;4991315;28;20637;-65
2022/06/07 12:56:10;;;;;;;1.10;1.03;;;27.20;52.10;;;;;;4975798;28;20654;-67
2022/06/07 12:58:45;;;;;;;1.13;1.00;;;27.10;53.10;;;;;;4980570;28;20640;-67
2022/06/07 13:01:26;;;;;;;1.00;1.00;;;27.00;53.40;;;;;;4992247;28;20672;-68
2022/06/07 13:03:56;;;;;;;1.10;1.00;;;26.60;53.90;;;;;;4986999;28;20635;-67
2022/06/07 13:06:25;;;;;;;1.00;1.00;;;26.40;55.00;;;;;;4972831;28;20615;-66
2022/06/07 13:08:58;;;;;;;1.00;1.00;;;26.50;55.30;;;;;;4982531;28;20726;-67
2022/06/07 13:11:26;;;;;;;1.03;1.03;;;26.70;55.30;;;;;;4984785;28;21059;-69
2022/06/07 13:13:54;;;;;;;2.10;1.10;;;26.40;55.90;;;;;;4991601;28;20644;-67
2022/06/07 13:16:21;;;;;;;1.30;1.30;;;26.10;56.30;;;;;;4991578;28;20632;-67
2022/06/07 13:19:01;;;;;;;1.77;1.10;;;26.20;56.70;;;;;;4990222;28;20843;-67
2022/06/07 13:21:37;;;;;;;10.60;1.40;;;26.30;57.10;;;;;;4991109;28;20669;-66
2022/06/07 13:24:05;;;;;;;1.13;1.00;;;26.70;56.00;;;;;;4971609;28;20647;-66
2022/06/07 13:26:43;;;;;;;1.00;1.00;;;26.70;55.90;;;;;;4971455;28;20635;-67
2022/06/07 13:29:26;;;;;;;1.00;0.90;;;26.70;56.00;;;;;;4976591;28;20734;-67
2022/06/07 13:32:04;;;;;;;1.00;1.00;;;26.50;55.60;;;;;;4990799;28;20650;-69
2022/06/07 13:34:33;;;;;;;2.97;0.90;;;26.00;56.30;;;;;;4983535;28;20639;-67
2022/06/07 13:37:09;;;;;;;1.00;1.00;;;25.80;57.10;;;;;;4972382;28;20645;-67